Terminal Aerodrome Forecast
Issued by NWS

Home | Current Version | Previous Version | Graphics & Text | Print | Product List | Glossary On
Versions: 1 2 3 4 5 6 7 8 9 10 11 12 13
000
FTUS43 KIWX 021720
TAFSBN
TAF
KSBN 021720Z 0218/0318 21015G25KT P6SM SCT250
     FM030200 21015G25KT P6SM SCT050
      TEMPO 0302/0305 -TSRA BKN050CB
     FM030500 27010KT P6SM BKN035
     FM031500 31012KT P6SM SCT250=

USA.gov is the U.S. government's official web portal to all federal, state and local government web resources and services.